sensor_id;sensor_type;location;lat;lon;timestamp;P1;durP1;ratioP1;P2;durP2;ratioP2
71183;SDS011;58887;51.980;4.464;2023-09-12T00:00:53;11.40;;;11.40;;
71183;SDS011;58887;51.980;4.464;2023-09-12T00:03:19;11.59;;;11.58;;
71183;SDS011;58887;51.980;4.464;2023-09-12T00:05:52;11.35;;;11.25;;
71183;SDS011;58887;51.980;4.464;2023-09-12T00:08:19;11.68;;;11.66;;
71183;SDS011;58887;51.980;4.464;2023-09-12T00:10:44;13.13;;;13.10;;
71183;SDS011;58887;51.980;4.464;2023-09-12T00:13:10;13.91;;;13.87;;
71183;SDS011;58887;51.980;4.464;2023-09-12T00:15:35;13.60;;;13.57;;
71183;SDS011;58887;51.980;4.464;2023-09-12T00:18:01;14.34;;;14.29;;
71183;SDS011;58887;51.980;4.464;2023-09-12T00:20:27;15.20;;;15.17;;
71183;SDS011;58887;51.980;4.464;2023-09-12T00:22:52;15.23;;;15.11;;
71183;SDS011;58887;51.980;4.464;2023-09-12T00:25:19;15.38;;;15.33;;
71183;SDS011;58887;51.980;4.464;2023-09-12T00:27:45;17.44;;;17.34;;
71183;SDS011;58887;51.980;4.464;2023-09-12T00:30:11;18.98;;;18.91;;
71183;SDS011;58887;51.980;4.464;2023-09-12T00:32:37;17.61;;;17.60;;
71183;SDS011;58887;51.980;4.464;2023-09-12T00:35:02;17.40;;;17.29;;
71183;SDS011;58887;51.980;4.464;2023-09-12T00:37:32;17.34;;;17.26;;
71183;SDS011;58887;51.980;4.464;2023-09-12T00:39:59;17.44;;;17.40;;
71183;SDS011;58887;51.980;4.464;2023-09-12T00:42:27;17.48;;;17.46;;
71183;SDS011;58887;51.980;4.464;2023-09-12T00:44:52;17.32;;;17.31;;
71183;SDS011;58887;51.980;4.464;2023-09-12T00:47:18;16.91;;;16.91;;
71183;SDS011;58887;51.980;4.464;2023-09-12T00:49:46;17.13;;;17.12;;
71183;SDS011;58887;51.980;4.464;2023-09-12T00:52:13;16.58;;;16.53;;
71183;SDS011;58887;51.980;4.464;2023-09-12T00:54:40;17.03;;;16.97;;
71183;SDS011;58887;51.980;4.464;2023-09-12T00:57:06;15.34;;;15.25;;
71183;SDS011;58887;51.980;4.464;2023-09-12T00:59:34;15.45;;;15.43;;
71183;SDS011;58887;51.980;4.464;2023-09-12T01:02:01;15.41;;;15.39;;
71183;SDS011;58887;51.980;4.464;2023-09-12T01:04:27;14.92;;;14.90;;
71183;SDS011;58887;51.980;4.464;2023-09-12T01:06:54;14.94;;;14.90;;
71183;SDS011;58887;51.980;4.464;2023-09-12T01:09:20;13.97;;;13.85;;
71183;SDS011;58887;51.980;4.464;2023-09-12T01:11:48;13.99;;;13.92;;
71183;SDS011;58887;51.980;4.464;2023-09-12T01:14:13;13.60;;;13.59;;
71183;SDS011;58887;51.980;4.464;2023-09-12T01:16:39;12.81;;;12.81;;
71183;SDS011;58887;51.980;4.464;2023-09-12T01:19:04;12.52;;;12.37;;
71183;SDS011;58887;51.980;4.464;2023-09-12T01:21:39;11.86;;;11.80;;
71183;SDS011;58887;51.980;4.464;2023-09-12T01:29:37;10.68;;;10.66;;
71183;SDS011;58887;51.980;4.464;2023-09-12T01:32:05;11.10;;;11.06;;
71183;SDS011;58887;51.980;4.464;2023-09-12T01:34:31;10.95;;;10.92;;
71183;SDS011;58887;51.980;4.464;2023-09-12T01:36:57;10.24;;;10.21;;
71183;SDS011;58887;51.980;4.464;2023-09-12T01:39:22;11.09;;;11.08;;
71183;SDS011;58887;51.980;4.464;2023-09-12T01:41:48;11.00;;;10.98;;
71183;SDS011;58887;51.980;4.464;2023-09-12T01:44:18;10.28;;;10.23;;
71183;SDS011;58887;51.980;4.464;2023-09-12T01:46:49;10.74;;;10.72;;
71183;SDS011;58887;51.980;4.464;2023-09-12T01:49:19;11.32;;;11.30;;
71183;SDS011;58887;51.980;4.464;2023-09-12T01:51:48;10.93;;;10.91;;
71183;SDS011;58887;51.980;4.464;2023-09-12T01:54:15;10.57;;;10.56;;
71183;SDS011;58887;51.980;4.464;2023-09-12T01:56:42;10.59;;;10.56;;
71183;SDS011;58887;51.980;4.464;2023-09-12T01:59:08;10.91;;;10.91;;
71183;SDS011;58887;51.980;4.464;2023-09-12T02:01:34;11.29;;;11.28;;
71183;SDS011;58887;51.980;4.464;2023-09-12T02:03:59;10.46;;;10.45;;
71183;SDS011;58887;51.980;4.464;2023-09-12T02:06:25;10.23;;;10.21;;
71183;SDS011;58887;51.980;4.464;2023-09-12T02:08:50;10.27;;;10.26;;
71183;SDS011;58887;51.980;4.464;2023-09-12T02:11:16;9.61;;;9.61;;
71183;SDS011;58887;51.980;4.464;2023-09-12T02:13:42;9.75;;;9.75;;
71183;SDS011;58887;51.980;4.464;2023-09-12T02:16:08;9.97;;;9.95;;
71183;SDS011;58887;51.980;4.464;2023-09-12T02:18:33;10.04;;;10.00;;
71183;SDS011;58887;51.980;4.464;2023-09-12T02:20:59;9.79;;;9.77;;
71183;SDS011;58887;51.980;4.464;2023-09-12T02:23:24;9.62;;;9.61;;
71183;SDS011;58887;51.980;4.464;2023-09-12T02:25:50;9.45;;;9.44;;
71183;SDS011;58887;51.980;4.464;2023-09-12T02:28:15;9.03;;;9.03;;
71183;SDS011;58887;51.980;4.464;2023-09-12T02:30:41;8.66;;;8.62;;
71183;SDS011;58887;51.980;4.464;2023-09-12T02:33:06;8.96;;;8.95;;
71183;SDS011;58887;51.980;4.464;2023-09-12T02:35:32;10.89;;;10.85;;
71183;SDS011;58887;51.980;4.464;2023-09-12T02:37:59;10.14;;;10.10;;
71183;SDS011;58887;51.980;4.464;2023-09-12T02:40:24;11.02;;;10.99;;
71183;SDS011;58887;51.980;4.464;2023-09-12T02:42:50;11.35;;;11.35;;
71183;SDS011;58887;51.980;4.464;2023-09-12T02:45:16;11.06;;;11.06;;
71183;SDS011;58887;51.980;4.464;2023-09-12T02:47:41;10.72;;;10.72;;
71183;SDS011;58887;51.980;4.464;2023-09-12T02:50:08;10.70;;;10.70;;
71183;SDS011;58887;51.980;4.464;2023-09-12T02:52:34;10.22;;;10.22;;
71183;SDS011;58887;51.980;4.464;2023-09-12T02:55:00;10.51;;;10.51;;
71183;SDS011;58887;51.980;4.464;2023-09-12T02:57:25;10.89;;;10.89;;
71183;SDS011;58887;51.980;4.464;2023-09-12T02:59:51;11.42;;;11.41;;
71183;SDS011;58887;51.980;4.464;2023-09-12T03:02:16;11.18;;;11.13;;
71183;SDS011;58887;51.980;4.464;2023-09-12T03:04:41;9.69;;;9.69;;
71183;SDS011;58887;51.980;4.464;2023-09-12T03:07:07;9.89;;;9.88;;
71183;SDS011;58887;51.980;4.464;2023-09-12T03:09:33;10.77;;;10.73;;
71183;SDS011;58887;51.980;4.464;2023-09-12T03:12:00;10.04;;;10.01;;
71183;SDS011;58887;51.980;4.464;2023-09-12T03:14:27;9.88;;;9.87;;
71183;SDS011;58887;51.980;4.464;2023-09-12T03:16:53;9.78;;;9.77;;
71183;SDS011;58887;51.980;4.464;2023-09-12T03:19:18;9.65;;;9.65;;
71183;SDS011;58887;51.980;4.464;2023-09-12T03:21:44;10.16;;;10.14;;
71183;SDS011;58887;51.980;4.464;2023-09-12T03:24:09;9.93;;;9.93;;
71183;SDS011;58887;51.980;4.464;2023-09-12T03:26:35;10.00;;;10.00;;
71183;SDS011;58887;51.980;4.464;2023-09-12T03:29:02;9.99;;;9.95;;
71183;SDS011;58887;51.980;4.464;2023-09-12T03:31:28;9.72;;;9.72;;
71183;SDS011;58887;51.980;4.464;2023-09-12T03:33:54;9.49;;;9.49;;
71183;SDS011;58887;51.980;4.464;2023-09-12T03:36:19;9.52;;;9.52;;
71183;SDS011;58887;51.980;4.464;2023-09-12T03:38:45;10.18;;;10.16;;
71183;SDS011;58887;51.980;4.464;2023-09-12T03:41:10;9.65;;;9.62;;
71183;SDS011;58887;51.980;4.464;2023-09-12T03:43:36;10.29;;;10.28;;
71183;SDS011;58887;51.980;4.464;2023-09-12T03:46:03;11.30;;;11.30;;
71183;SDS011;58887;51.980;4.464;2023-09-12T03:48:28;10.11;;;10.08;;
71183;SDS011;58887;51.980;4.464;2023-09-12T03:50:56;10.40;;;10.40;;
71183;SDS011;58887;51.980;4.464;2023-09-12T03:53:22;10.97;;;10.94;;
71183;SDS011;58887;51.980;4.464;2023-09-12T03:55:48;10.36;;;10.30;;
71183;SDS011;58887;51.980;4.464;2023-09-12T03:58:13;10.83;;;10.75;;
71183;SDS011;58887;51.980;4.464;2023-09-12T04:00:39;11.74;;;11.71;;
71183;SDS011;58887;51.980;4.464;2023-09-12T04:03:04;11.63;;;11.62;;
71183;SDS011;58887;51.980;4.464;2023-09-12T04:05:30;10.38;;;10.38;;
71183;SDS011;58887;51.980;4.464;2023-09-12T04:07:55;10.44;;;10.37;;
71183;SDS011;58887;51.980;4.464;2023-09-12T04:10:21;10.60;;;10.54;;
71183;SDS011;58887;51.980;4.464;2023-09-12T04:12:46;12.33;;;12.24;;
71183;SDS011;58887;51.980;4.464;2023-09-12T04:15:12;12.14;;;12.07;;
71183;SDS011;58887;51.980;4.464;2023-09-12T04:17:37;12.79;;;12.78;;
71183;SDS011;58887;51.980;4.464;2023-09-12T04:20:03;12.87;;;12.84;;
71183;SDS011;58887;51.980;4.464;2023-09-12T04:22:30;13.76;;;13.63;;
71183;SDS011;58887;51.980;4.464;2023-09-12T04:24:55;14.24;;;14.16;;
71183;SDS011;58887;51.980;4.464;2023-09-12T04:27:21;14.14;;;14.02;;
71183;SDS011;58887;51.980;4.464;2023-09-12T04:29:46;13.58;;;13.40;;
71183;SDS011;58887;51.980;4.464;2023-09-12T04:32:12;13.63;;;13.53;;
71183;SDS011;58887;51.980;4.464;2023-09-12T04:34:37;14.25;;;14.13;;
71183;SDS011;58887;51.980;4.464;2023-09-12T04:37:04;14.37;;;14.19;;
71183;SDS011;58887;51.980;4.464;2023-09-12T04:39:30;14.36;;;14.21;;
71183;SDS011;58887;51.980;4.464;2023-09-12T04:41:56;14.47;;;14.30;;
71183;SDS011;58887;51.980;4.464;2023-09-12T04:44:22;13.72;;;13.67;;
71183;SDS011;58887;51.980;4.464;2023-09-12T04:46:47;14.19;;;14.06;;
71183;SDS011;58887;51.980;4.464;2023-09-12T04:49:13;14.00;;;13.85;;
71183;SDS011;58887;51.980;4.464;2023-09-12T04:51:39;14.21;;;14.00;;
71183;SDS011;58887;51.980;4.464;2023-09-12T04:54:04;13.21;;;13.13;;
71183;SDS011;58887;51.980;4.464;2023-09-12T04:56:30;12.98;;;12.92;;
71183;SDS011;58887;51.980;4.464;2023-09-12T04:58:56;13.71;;;13.67;;
71183;SDS011;58887;51.980;4.464;2023-09-12T05:01:21;14.78;;;14.60;;
71183;SDS011;58887;51.980;4.464;2023-09-12T05:03:46;15.82;;;15.67;;
71183;SDS011;58887;51.980;4.464;2023-09-12T05:06:12;15.01;;;14.89;;
71183;SDS011;58887;51.980;4.464;2023-09-12T05:08:38;15.90;;;15.69;;
71183;SDS011;58887;51.980;4.464;2023-09-12T05:11:04;16.20;;;16.02;;
71183;SDS011;58887;51.980;4.464;2023-09-12T05:13:30;16.41;;;16.13;;
71183;SDS011;58887;51.980;4.464;2023-09-12T05:15:55;16.74;;;16.36;;
71183;SDS011;58887;51.980;4.464;2023-09-12T05:18:24;16.77;;;16.28;;
71183;SDS011;58887;51.980;4.464;2023-09-12T05:20:49;17.73;;;17.35;;
71183;SDS011;58887;51.980;4.464;2023-09-12T05:23:15;18.31;;;17.91;;
71183;SDS011;58887;51.980;4.464;2023-09-12T05:25:41;18.89;;;18.40;;
71183;SDS011;58887;51.980;4.464;2023-09-12T05:28:06;19.16;;;18.65;;
71183;SDS011;58887;51.980;4.464;2023-09-12T05:30:32;19.33;;;19.07;;
71183;SDS011;58887;51.980;4.464;2023-09-12T05:32:57;18.53;;;18.31;;
71183;SDS011;58887;51.980;4.464;2023-09-12T05:35:23;19.36;;;18.91;;
71183;SDS011;58887;51.980;4.464;2023-09-12T05:37:48;19.25;;;18.88;;
71183;SDS011;58887;51.980;4.464;2023-09-12T05:40:15;18.14;;;17.86;;
71183;SDS011;58887;51.980;4.464;2023-09-12T05:42:40;18.65;;;18.35;;
71183;SDS011;58887;51.980;4.464;2023-09-12T05:45:06;18.05;;;17.74;;
71183;SDS011;58887;51.980;4.464;2023-09-12T05:47:32;17.95;;;17.63;;
71183;SDS011;58887;51.980;4.464;2023-09-12T05:49:57;18.85;;;18.27;;
71183;SDS011;58887;51.980;4.464;2023-09-12T05:52:24;18.59;;;18.25;;
71183;SDS011;58887;51.980;4.464;2023-09-12T05:54:50;17.75;;;17.49;;
71183;SDS011;58887;51.980;4.464;2023-09-12T05:57:15;18.34;;;17.98;;
71183;SDS011;58887;51.980;4.464;2023-09-12T05:59:41;18.12;;;17.76;;
71183;SDS011;58887;51.980;4.464;2023-09-12T06:02:06;17.89;;;17.60;;
71183;SDS011;58887;51.980;4.464;2023-09-12T06:04:34;17.08;;;16.76;;
71183;SDS011;58887;51.980;4.464;2023-09-12T06:07:03;18.50;;;18.16;;
71183;SDS011;58887;51.980;4.464;2023-09-12T06:09:29;19.01;;;18.65;;
71183;SDS011;58887;51.980;4.464;2023-09-12T06:11:54;18.51;;;18.17;;
71183;SDS011;58887;51.980;4.464;2023-09-12T06:14:20;18.91;;;18.48;;
71183;SDS011;58887;51.980;4.464;2023-09-12T06:16:46;18.29;;;17.90;;
71183;SDS011;58887;51.980;4.464;2023-09-12T06:19:11;18.77;;;18.32;;
71183;SDS011;58887;51.980;4.464;2023-09-12T06:21:37;19.49;;;19.12;;
71183;SDS011;58887;51.980;4.464;2023-09-12T06:24:10;19.03;;;18.68;;
71183;SDS011;58887;51.980;4.464;2023-09-12T06:26:40;19.07;;;18.69;;
71183;SDS011;58887;51.980;4.464;2023-09-12T06:29:06;18.99;;;18.53;;
71183;SDS011;58887;51.980;4.464;2023-09-12T06:31:32;21.14;;;20.25;;
71183;SDS011;58887;51.980;4.464;2023-09-12T06:33:58;19.82;;;19.22;;
71183;SDS011;58887;51.980;4.464;2023-09-12T06:36:26;19.90;;;19.54;;
71183;SDS011;58887;51.980;4.464;2023-09-12T06:38:57;19.57;;;19.24;;
71183;SDS011;58887;51.980;4.464;2023-09-12T06:41:24;20.05;;;19.79;;
71183;SDS011;58887;51.980;4.464;2023-09-12T06:43:50;19.04;;;18.72;;
71183;SDS011;58887;51.980;4.464;2023-09-12T06:46:15;20.49;;;20.02;;
71183;SDS011;58887;51.980;4.464;2023-09-12T06:48:44;19.48;;;19.12;;
71183;SDS011;58887;51.980;4.464;2023-09-12T06:51:10;19.66;;;19.32;;
71183;SDS011;58887;51.980;4.464;2023-09-12T06:53:36;19.79;;;19.47;;
71183;SDS011;58887;51.980;4.464;2023-09-12T06:56:03;20.20;;;19.72;;
71183;SDS011;58887;51.980;4.464;2023-09-12T06:58:29;20.38;;;20.06;;
71183;SDS011;58887;51.980;4.464;2023-09-12T07:00:54;20.44;;;20.08;;
71183;SDS011;58887;51.980;4.464;2023-09-12T07:03:20;19.56;;;19.28;;
71183;SDS011;58887;51.980;4.464;2023-09-12T07:05:46;20.45;;;20.18;;
71183;SDS011;58887;51.980;4.464;2023-09-12T07:08:12;20.52;;;20.21;;
71183;SDS011;58887;51.980;4.464;2023-09-12T07:10:43;20.47;;;20.14;;
71183;SDS011;58887;51.980;4.464;2023-09-12T07:13:10;20.71;;;20.35;;
71183;SDS011;58887;51.980;4.464;2023-09-12T07:15:35;20.18;;;19.92;;
71183;SDS011;58887;51.980;4.464;2023-09-12T07:18:01;20.61;;;20.08;;
71183;SDS011;58887;51.980;4.464;2023-09-12T07:20:27;20.26;;;19.93;;
71183;SDS011;58887;51.980;4.464;2023-09-12T07:22:53;20.31;;;20.00;;
71183;SDS011;58887;51.980;4.464;2023-09-12T07:25:18;19.76;;;19.44;;
71183;SDS011;58887;51.980;4.464;2023-09-12T07:27:46;19.04;;;18.80;;
71183;SDS011;58887;51.980;4.464;2023-09-12T07:30:11;19.38;;;19.00;;
71183;SDS011;58887;51.980;4.464;2023-09-12T07:32:37;18.81;;;18.59;;
71183;SDS011;58887;51.980;4.464;2023-09-12T07:35:02;18.42;;;18.30;;
71183;SDS011;58887;51.980;4.464;2023-09-12T07:37:28;18.94;;;18.69;;
71183;SDS011;58887;51.980;4.464;2023-09-12T07:39:54;18.44;;;18.26;;
71183;SDS011;58887;51.980;4.464;2023-09-12T07:42:23;18.83;;;18.66;;
71183;SDS011;58887;51.980;4.464;2023-09-12T07:44:49;17.63;;;17.52;;
71183;SDS011;58887;51.980;4.464;2023-09-12T07:47:14;17.89;;;17.76;;
71183;SDS011;58887;51.980;4.464;2023-09-12T07:49:40;18.21;;;18.03;;
71183;SDS011;58887;51.980;4.464;2023-09-12T07:52:06;17.73;;;17.41;;
71183;SDS011;58887;51.980;4.464;2023-09-12T07:54:32;17.53;;;17.22;;
71183;SDS011;58887;51.980;4.464;2023-09-12T07:56:57;17.45;;;17.27;;
71183;SDS011;58887;51.980;4.464;2023-09-12T07:59:23;17.34;;;17.31;;
71183;SDS011;58887;51.980;4.464;2023-09-12T08:01:49;18.10;;;17.98;;
71183;SDS011;58887;51.980;4.464;2023-09-12T08:04:16;17.55;;;17.48;;
71183;SDS011;58887;51.980;4.464;2023-09-12T08:06:41;18.00;;;17.91;;
71183;SDS011;58887;51.980;4.464;2023-09-12T08:09:07;17.40;;;17.30;;
71183;SDS011;58887;51.980;4.464;2023-09-12T08:11:33;17.71;;;17.57;;
71183;SDS011;58887;51.980;4.464;2023-09-12T08:13:58;17.74;;;17.66;;
71183;SDS011;58887;51.980;4.464;2023-09-12T08:16:24;17.57;;;17.56;;
71183;SDS011;58887;51.980;4.464;2023-09-12T08:18:49;17.49;;;17.49;;
71183;SDS011;58887;51.980;4.464;2023-09-12T08:21:15;17.18;;;17.15;;
71183;SDS011;58887;51.980;4.464;2023-09-12T08:23:40;17.31;;;17.30;;
71183;SDS011;58887;51.980;4.464;2023-09-12T08:26:06;17.05;;;17.05;;
71183;SDS011;58887;51.980;4.464;2023-09-12T08:28:31;17.99;;;17.99;;
71183;SDS011;58887;51.980;4.464;2023-09-12T08:30:56;18.40;;;18.40;;
71183;SDS011;58887;51.980;4.464;2023-09-12T08:33:22;17.89;;;17.88;;
71183;SDS011;58887;51.980;4.464;2023-09-12T08:35:48;17.04;;;17.04;;
71183;SDS011;58887;51.980;4.464;2023-09-12T08:38:14;17.42;;;17.42;;
71183;SDS011;58887;51.980;4.464;2023-09-12T08:40:40;17.02;;;17.02;;
71183;SDS011;58887;51.980;4.464;2023-09-12T08:43:05;16.71;;;16.71;;
71183;SDS011;58887;51.980;4.464;2023-09-12T08:45:32;16.94;;;16.94;;
71183;SDS011;58887;51.980;4.464;2023-09-12T08:48:00;16.45;;;16.45;;
71183;SDS011;58887;51.980;4.464;2023-09-12T08:50:28;15.75;;;15.75;;
71183;SDS011;58887;51.980;4.464;2023-09-12T08:52:59;15.12;;;15.12;;
71183;SDS011;58887;51.980;4.464;2023-09-12T08:55:24;14.68;;;14.68;;
71183;SDS011;58887;51.980;4.464;2023-09-12T08:57:50;15.25;;;15.25;;
71183;SDS011;58887;51.980;4.464;2023-09-12T09:00:20;14.25;;;14.25;;
71183;SDS011;58887;51.980;4.464;2023-09-12T09:02:47;15.56;;;15.56;;
71183;SDS011;58887;51.980;4.464;2023-09-12T09:05:15;15.73;;;15.73;;
71183;SDS011;58887;51.980;4.464;2023-09-12T09:07:42;14.98;;;14.98;;
71183;SDS011;58887;51.980;4.464;2023-09-12T09:10:15;15.77;;;15.77;;
71183;SDS011;58887;51.980;4.464;2023-09-12T09:12:45;15.36;;;15.36;;
71183;SDS011;58887;51.980;4.464;2023-09-12T09:15:27;14.91;;;14.91;;
71183;SDS011;58887;51.980;4.464;2023-09-12T09:17:55;14.01;;;14.01;;
71183;SDS011;58887;51.980;4.464;2023-09-12T09:20:26;13.21;;;13.21;;
71183;SDS011;58887;51.980;4.464;2023-09-12T09:23:04;14.22;;;14.22;;
71183;SDS011;58887;51.980;4.464;2023-09-12T09:25:32;14.74;;;14.74;;
71183;SDS011;58887;51.980;4.464;2023-09-12T09:28:01;15.59;;;15.59;;
71183;SDS011;58887;51.980;4.464;2023-09-12T09:30:38;15.67;;;15.67;;
71183;SDS011;58887;51.980;4.464;2023-09-12T09:33:05;15.68;;;15.68;;
71183;SDS011;58887;51.980;4.464;2023-09-12T09:35:31;16.08;;;16.08;;
71183;SDS011;58887;51.980;4.464;2023-09-12T09:37:56;15.85;;;15.85;;
71183;SDS011;58887;51.980;4.464;2023-09-12T09:40:22;15.05;;;15.05;;
71183;SDS011;58887;51.980;4.464;2023-09-12T09:42:52;16.16;;;16.16;;
71183;SDS011;58887;51.980;4.464;2023-09-12T09:45:23;16.79;;;16.79;;
71183;SDS011;58887;51.980;4.464;2023-09-12T09:47:49;15.75;;;15.75;;
71183;SDS011;58887;51.980;4.464;2023-09-12T09:50:16;16.19;;;16.19;;
71183;SDS011;58887;51.980;4.464;2023-09-12T09:52:42;16.74;;;16.74;;
71183;SDS011;58887;51.980;4.464;2023-09-12T09:55:15;17.42;;;17.42;;
71183;SDS011;58887;51.980;4.464;2023-09-12T09:57:40;17.13;;;17.13;;
71183;SDS011;58887;51.980;4.464;2023-09-12T10:00:06;16.88;;;16.88;;
71183;SDS011;58887;51.980;4.464;2023-09-12T10:02:36;16.72;;;16.72;;
71183;SDS011;58887;51.980;4.464;2023-09-12T10:05:05;16.06;;;16.06;;
71183;SDS011;58887;51.980;4.464;2023-09-12T10:07:34;15.72;;;15.72;;
71183;SDS011;58887;51.980;4.464;2023-09-12T10:10:03;15.63;;;15.63;;
71183;SDS011;58887;51.980;4.464;2023-09-12T10:12:33;15.26;;;15.26;;
71183;SDS011;58887;51.980;4.464;2023-09-12T10:15:01;14.75;;;14.75;;
71183;SDS011;58887;51.980;4.464;2023-09-12T10:17:31;15.39;;;15.39;;
71183;SDS011;58887;51.980;4.464;2023-09-12T10:20:03;15.66;;;15.66;;
71183;SDS011;58887;51.980;4.464;2023-09-12T10:22:42;15.31;;;15.31;;
71183;SDS011;58887;51.980;4.464;2023-09-12T10:25:14;14.76;;;14.76;;
71183;SDS011;58887;51.980;4.464;2023-09-12T10:27:40;14.92;;;14.92;;
71183;SDS011;58887;51.980;4.464;2023-09-12T10:30:07;15.00;;;15.00;;
71183;SDS011;58887;51.980;4.464;2023-09-12T10:32:34;15.62;;;15.62;;
71183;SDS011;58887;51.980;4.464;2023-09-12T10:35:01;14.95;;;14.95;;
71183;SDS011;58887;51.980;4.464;2023-09-12T10:37:28;15.13;;;15.13;;
71183;SDS011;58887;51.980;4.464;2023-09-12T10:39:54;15.42;;;15.42;;
71183;SDS011;58887;51.980;4.464;2023-09-12T10:42:23;15.44;;;15.44;;
71183;SDS011;58887;51.980;4.464;2023-09-12T10:44:50;15.78;;;15.78;;
71183;SDS011;58887;51.980;4.464;2023-09-12T10:47:19;15.23;;;15.23;;
71183;SDS011;58887;51.980;4.464;2023-09-12T10:49:45;14.97;;;14.97;;
71183;SDS011;58887;51.980;4.464;2023-09-12T10:52:23;14.33;;;14.33;;
71183;SDS011;58887;51.980;4.464;2023-09-12T10:54:50;14.92;;;14.92;;
71183;SDS011;58887;51.980;4.464;2023-09-12T10:57:16;14.83;;;14.83;;
71183;SDS011;58887;51.980;4.464;2023-09-12T11:02:30;15.57;;;15.57;;
71183;SDS011;58887;51.980;4.464;2023-09-12T11:04:58;14.94;;;14.94;;
71183;SDS011;58887;51.980;4.464;2023-09-12T11:12:47;13.88;;;13.88;;
71183;SDS011;58887;51.980;4.464;2023-09-12T11:15:15;13.71;;;13.71;;
71183;SDS011;58887;51.980;4.464;2023-09-12T11:17:42;13.80;;;13.80;;
71183;SDS011;58887;51.980;4.464;2023-09-12T11:20:08;14.34;;;14.34;;
71183;SDS011;58887;51.980;4.464;2023-09-12T11:22:39;14.47;;;14.47;;
71183;SDS011;58887;51.980;4.464;2023-09-12T11:25:25;14.33;;;14.32;;
71183;SDS011;58887;51.980;4.464;2023-09-12T11:32:43;15.77;;;15.77;;
71183;SDS011;58887;51.980;4.464;2023-09-12T11:35:11;15.11;;;15.11;;
71183;SDS011;58887;51.980;4.464;2023-09-12T11:37:39;14.39;;;14.39;;
71183;SDS011;58887;51.980;4.464;2023-09-12T11:42:40;13.89;;;13.89;;
71183;SDS011;58887;51.980;4.464;2023-09-12T11:45:10;13.07;;;13.07;;
71183;SDS011;58887;51.980;4.464;2023-09-12T11:47:42;13.09;;;13.09;;
71183;SDS011;58887;51.980;4.464;2023-09-12T11:50:25;13.36;;;13.36;;
71183;SDS011;58887;51.980;4.464;2023-09-12T11:53:05;12.34;;;12.34;;
71183;SDS011;58887;51.980;4.464;2023-09-12T11:55:43;12.59;;;12.59;;
71183;SDS011;58887;51.980;4.464;2023-09-12T11:58:11;12.61;;;12.61;;
71183;SDS011;58887;51.980;4.464;2023-09-12T12:00:43;12.31;;;12.31;;
71183;SDS011;58887;51.980;4.464;2023-09-12T12:03:11;11.57;;;11.57;;
71183;SDS011;58887;51.980;4.464;2023-09-12T12:05:38;10.60;;;10.60;;
71183;SDS011;58887;51.980;4.464;2023-09-12T12:08:06;10.55;;;10.55;;
71183;SDS011;58887;51.980;4.464;2023-09-12T12:10:33;10.79;;;10.79;;
71183;SDS011;58887;51.980;4.464;2023-09-12T12:12:59;9.54;;;9.54;;
71183;SDS011;58887;51.980;4.464;2023-09-12T12:15:27;9.14;;;9.14;;
71183;SDS011;58887;51.980;4.464;2023-09-12T12:17:56;9.09;;;9.09;;
71183;SDS011;58887;51.980;4.464;2023-09-12T12:20:22;9.05;;;9.05;;
71183;SDS011;58887;51.980;4.464;2023-09-12T12:22:48;9.28;;;9.28;;
71183;SDS011;58887;51.980;4.464;2023-09-12T12:25:16;9.47;;;9.47;;
71183;SDS011;58887;51.980;4.464;2023-09-12T12:27:42;9.30;;;9.30;;
71183;SDS011;58887;51.980;4.464;2023-09-12T12:30:12;9.08;;;9.08;;
71183;SDS011;58887;51.980;4.464;2023-09-12T12:32:41;8.52;;;8.52;;
71183;SDS011;58887;51.980;4.464;2023-09-12T12:35:18;8.96;;;8.96;;
71183;SDS011;58887;51.980;4.464;2023-09-12T12:37:44;9.02;;;9.02;;
71183;SDS011;58887;51.980;4.464;2023-09-12T12:40:13;10.02;;;10.02;;
71183;SDS011;58887;51.980;4.464;2023-09-12T12:42:39;9.69;;;9.69;;
71183;SDS011;58887;51.980;4.464;2023-09-12T12:45:15;8.93;;;8.93;;
71183;SDS011;58887;51.980;4.464;2023-09-12T12:47:45;9.21;;;9.21;;
71183;SDS011;58887;51.980;4.464;2023-09-12T12:50:16;9.38;;;9.38;;
71183;SDS011;58887;51.980;4.464;2023-09-12T12:52:47;9.75;;;9.75;;
71183;SDS011;58887;51.980;4.464;2023-09-12T12:55:14;10.70;;;10.70;;
71183;SDS011;58887;51.980;4.464;2023-09-12T12:57:42;9.63;;;9.63;;
71183;SDS011;58887;51.980;4.464;2023-09-12T13:00:09;9.50;;;9.50;;
71183;SDS011;58887;51.980;4.464;2023-09-12T13:02:37;9.86;;;9.86;;
71183;SDS011;58887;51.980;4.464;2023-09-12T13:05:03;9.57;;;9.57;;
71183;SDS011;58887;51.980;4.464;2023-09-12T13:07:33;10.08;;;10.08;;
71183;SDS011;58887;51.980;4.464;2023-09-12T13:10:00;10.11;;;10.11;;
71183;SDS011;58887;51.980;4.464;2023-09-12T13:12:27;9.42;;;9.42;;
71183;SDS011;58887;51.980;4.464;2023-09-12T13:14:53;8.60;;;8.60;;
71183;SDS011;58887;51.980;4.464;2023-09-12T13:17:19;8.80;;;8.80;;
71183;SDS011;58887;51.980;4.464;2023-09-12T13:19:44;8.11;;;8.11;;
71183;SDS011;58887;51.980;4.464;2023-09-12T13:22:10;7.68;;;7.68;;
71183;SDS011;58887;51.980;4.464;2023-09-12T13:24:35;8.16;;;8.16;;
71183;SDS011;58887;51.980;4.464;2023-09-12T13:27:01;8.55;;;8.55;;
71183;SDS011;58887;51.980;4.464;2023-09-12T13:29:27;9.22;;;9.22;;
71183;SDS011;58887;51.980;4.464;2023-09-12T13:31:52;9.08;;;9.08;;
71183;SDS011;58887;51.980;4.464;2023-09-12T13:34:18;9.35;;;9.35;;
71183;SDS011;58887;51.980;4.464;2023-09-12T13:36:43;7.69;;;7.69;;
71183;SDS011;58887;51.980;4.464;2023-09-12T13:39:09;6.75;;;6.75;;
71183;SDS011;58887;51.980;4.464;2023-09-12T13:41:34;5.84;;;5.84;;
71183;SDS011;58887;51.980;4.464;2023-09-12T13:44:00;5.70;;;5.70;;
71183;SDS011;58887;51.980;4.464;2023-09-12T13:46:25;5.78;;;5.78;;
71183;SDS011;58887;51.980;4.464;2023-09-12T13:48:51;6.11;;;6.11;;
71183;SDS011;58887;51.980;4.464;2023-09-12T13:51:16;6.05;;;6.05;;
71183;SDS011;58887;51.980;4.464;2023-09-12T13:53:41;5.87;;;5.87;;
71183;SDS011;58887;51.980;4.464;2023-09-12T13:56:07;5.61;;;5.61;;
71183;SDS011;58887;51.980;4.464;2023-09-12T13:58:33;5.71;;;5.71;;
71183;SDS011;58887;51.980;4.464;2023-09-12T14:00:58;5.38;;;5.38;;
71183;SDS011;58887;51.980;4.464;2023-09-12T14:03:24;5.18;;;5.18;;
71183;SDS011;58887;51.980;4.464;2023-09-12T14:05:50;6.37;;;6.37;;
71183;SDS011;58887;51.980;4.464;2023-09-12T14:08:15;5.63;;;5.63;;
71183;SDS011;58887;51.980;4.464;2023-09-12T14:10:41;4.94;;;4.94;;
71183;SDS011;58887;51.980;4.464;2023-09-12T14:13:07;5.10;;;5.10;;
71183;SDS011;58887;51.980;4.464;2023-09-12T14:15:33;5.55;;;5.55;;
71183;SDS011;58887;51.980;4.464;2023-09-12T14:17:58;5.02;;;5.02;;
71183;SDS011;58887;51.980;4.464;2023-09-12T14:20:24;5.30;;;5.30;;
71183;SDS011;58887;51.980;4.464;2023-09-12T14:22:49;5.42;;;5.42;;
71183;SDS011;58887;51.980;4.464;2023-09-12T14:25:15;5.33;;;5.33;;
71183;SDS011;58887;51.980;4.464;2023-09-12T14:27:41;5.02;;;5.02;;
71183;SDS011;58887;51.980;4.464;2023-09-12T14:30:08;5.52;;;5.52;;
71183;SDS011;58887;51.980;4.464;2023-09-12T14:32:34;5.24;;;5.24;;
71183;SDS011;58887;51.980;4.464;2023-09-12T14:35:00;5.04;;;5.04;;
71183;SDS011;58887;51.980;4.464;2023-09-12T14:37:25;4.85;;;4.85;;
71183;SDS011;58887;51.980;4.464;2023-09-12T14:39:53;5.08;;;5.08;;
71183;SDS011;58887;51.980;4.464;2023-09-12T14:42:20;4.67;;;4.67;;
71183;SDS011;58887;51.980;4.464;2023-09-12T14:44:46;4.16;;;4.16;;
71183;SDS011;58887;51.980;4.464;2023-09-12T14:47:11;4.47;;;4.47;;